Snow/Ice From: 23-10-2018 22:46 Until: 24-10-2018 08:00 warning for: Snow/Ice Level: Yellow info button
suomi:
Liikennesää: Ajokeli on huono tienpintojen jäätymisen vuoksi.

svenska:
Trafikvädret: Väglaget är dåligt p.g.a. tillfrysning av vägytor.

english:
Traffic weather warning: Bad road conditions are expected because of ice-covered roads. 


Thunder radar more information blitzortung!


Löydät sääaseman tiedot myös:

European Weather Network

Finland Weather Exchange

Weather Underground

AWEKAS



Weather Underground säähistoriasivu

Päivittäin yhteenveto Tammikuu 14, 2017 Yksiköt:  Metriset    Englantilaiset   Molemmat
« Edellinen Päivä
Seuraava Päivä »
Päivittäin Viikoittain Kuukausittain Vuosittain Mukautettu
  Korkea: Matala: Keskiarvo:
Lämpötila: -17.8 °C -6.3 °C -2.2 °C
Kastepiste: -17.8 °C -7 °C -3.1 °C
Kosteus: Humidity % 92 % 93 %
Tuulen nopeus: 0 km/h 0 km/h 0 km/h
Tuulenpuuska: 0 km/h - -
Tuuli:- - North
Ilmanpaine: 0 hPa 986.7 hPa -
Sade: 0 mm    
Historical Graphs
 
 
Taulukkotiedot Tammikuu 14, 2017
Aika Lämpötila Kastepiste Ilmanpaine Tuuli Tuulen nopeus Tuulenpuuska Kosteus Sademäärä (tunneittain)
-17.8 °C -17.8 °C 0 hPa Calm     Humidity % 0 mm
00:00 -0.8 °C -1.6 °C 986.7 hPa Calm     94 % 0 mm
00:15 -0.8 °C -1.6 °C 987 hPa Calm     94 % 0 mm
00:30 -0.7 °C -1.6 °C 987 hPa Calm     94 % 0 mm
00:45 -0.7 °C -1.6 °C 987 hPa Calm     94 % 0 mm
01:00 -0.7 °C -1.6 °C 987 hPa Calm     94 % 0 mm
01:15 -0.7 °C -1.4 °C 987.4 hPa Calm     95 % 0 mm
01:30 -0.7 °C -1.4 °C 987.4 hPa Calm     95 % 0 mm
01:45 -0.7 °C -1.6 °C 987.4 hPa Calm     94 % 0 mm
02:00 -0.7 °C -1.6 °C 987.4 hPa Calm     94 % 0 mm
02:15 -0.7 °C -1.6 °C 987.4 hPa Calm     94 % 0 mm
02:30 -0.8 °C -1.6 °C 987.4 hPa Calm     94 % 0 mm
02:45 -0.8 °C -1.6 °C 987.7 hPa Calm     94 % 0 mm
03:00 -0.8 °C -1.6 °C 987.7 hPa Calm     94 % 0 mm
03:15 -0.9 °C -1.7 °C 987.7 hPa Calm     94 % 0 mm
03:30 -0.8 °C -1.7 °C 987.7 hPa Calm     94 % 0 mm
03:45 -0.8 °C -1.7 °C 987.7 hPa Calm     94 % 0 mm
04:00 -0.8 °C -1.7 °C 988 hPa Calm     94 % 0 mm
04:15 -0.8 °C -1.7 °C 988 hPa Calm     94 % 0 mm
04:30 -0.8 °C -1.7 °C 988 hPa Calm     94 % 0 mm
04:45 -0.8 °C -1.7 °C 988 hPa Calm     94 % 0 mm
05:00 -0.8 °C -1.7 °C 988.4 hPa Calm     94 % 0 mm
05:15 -0.9 °C -1.7 °C 988.4 hPa Calm     94 % 0 mm
05:30 -0.9 °C -1.9 °C 988.4 hPa Calm     93 % 0 mm
05:45 -0.9 °C -1.9 °C 988.7 hPa Calm     93 % 0 mm
06:00 -0.9 °C -1.9 °C 988.7 hPa Calm     93 % 0 mm
06:15 -0.9 °C -1.8 °C 988.7 hPa Calm     94 % 0 mm
06:30 -0.9 °C -1.9 °C 989.1 hPa Calm     93 % 0 mm
06:45 -0.9 °C -1.9 °C 989.1 hPa Calm     93 % 0 mm
07:00 -0.9 °C -1.9 °C 989.4 hPa Calm     93 % 0 mm
07:15 -0.9 °C -1.7 °C 989.4 hPa Calm     94 % 0 mm
07:30 -0.9 °C -1.7 °C 989.4 hPa Calm     94 % 0 mm
07:45 -0.9 °C -1.7 °C 989.4 hPa Calm     94 % 0 mm
08:00 -0.9 °C -1.7 °C 989.7 hPa Calm     94 % 0 mm
08:15 -0.9 °C -1.9 °C 989.7 hPa Calm     93 % 0 mm
08:30 -0.9 °C -1.9 °C 990.1 hPa Calm     93 % 0 mm
08:45 -0.8 °C -1.8 °C 990.1 hPa Calm     93 % 0 mm
09:00 -0.8 °C -1.8 °C 990.1 hPa Calm     93 % 0 mm
09:15 -0.8 °C -1.8 °C 990.4 hPa Calm     93 % 0 mm
09:30 -0.8 °C -1.8 °C 990.4 hPa Calm     93 % 0 mm
09:45 -0.8 °C -1.8 °C 990.7 hPa Calm     93 % 0 mm
10:00 -0.8 °C -1.8 °C 990.7 hPa Calm     93 % 0 mm
10:15 -0.9 °C -1.9 °C 990.7 hPa Calm     93 % 0 mm
10:30 -0.9 °C -1.9 °C 991.1 hPa Calm     93 % 0 mm
10:45 -0.9 °C -1.9 °C 991.1 hPa Calm     93 % 0 mm
11:00 -0.8 °C -1.8 °C 991.4 hPa Calm     93 % 0 mm
11:15 -0.8 °C -1.8 °C 991.4 hPa Calm     93 % 0 mm
11:30 -0.8 °C -1.8 °C 991.8 hPa Calm     93 % 0 mm
11:45 -0.7 °C -1.9 °C 991.8 hPa Calm     92 % 0 mm
12:00 -0.7 °C -1.9 °C 992.1 hPa Calm     92 % 0 mm
12:15 -0.7 °C -1.9 °C 992.1 hPa Calm     92 % 0 mm
12:30 -0.7 °C -1.8 °C 992.1 hPa Calm     92 % 0 mm
12:45 -0.7 °C -1.8 °C 992.4 hPa Calm     92 % 0 mm
13:00 -0.6 °C -1.7 °C 992.8 hPa Calm     92 % 0 mm
13:15 -0.6 °C -1.6 °C 992.8 hPa Calm     93 % 0 mm
13:30 -0.7 °C -1.7 °C 993.1 hPa Calm     93 % 0 mm
13:45 -0.8 °C -1.6 °C 993.1 hPa Calm     94 % 0 mm
14:00 -0.8 °C -1.5 °C 993.5 hPa Calm     95 % 0 mm
14:15 -0.8 °C -1.5 °C 993.5 hPa Calm     95 % 0 mm
14:30 -0.8 °C -1.5 °C 993.8 hPa Calm     95 % 0 mm
14:45 -0.8 °C -1.5 °C 994.1 hPa Calm     95 % 0 mm
15:00 -1 °C -1.8 °C 994.1 hPa Calm     94 % 0 mm
15:15 -1.4 °C -2.6 °C 994.5 hPa Calm     92 % 0 mm
15:30 -1.8 °C -3 °C 994.8 hPa Calm     92 % 0 mm
15:45 -2.2 °C -3.3 °C 994.8 hPa Calm     92 % 0 mm
16:00 -2.7 °C -3.6 °C 995.1 hPa Calm     93 % 0 mm
16:15 -3 °C -4 °C 995.1 hPa Calm     93 % 0 mm
16:30 -3.4 °C -4.4 °C 995.5 hPa Calm     93 % 0 mm
16:45 -3.5 °C -4.3 °C 995.8 hPa Calm     94 % 0 mm
17:00 -3.5 °C -4.3 °C 996.2 hPa Calm     94 % 0 mm
17:15 -3.7 °C -4.5 °C 996.2 hPa Calm     94 % 0 mm
17:30 -3.8 °C -4.6 °C 996.5 hPa Calm     94 % 0 mm
17:45 -3.8 °C -4.6 °C 996.5 hPa Calm     94 % 0 mm
18:00 -3.8 °C -4.7 °C 996.8 hPa Calm     94 % 0 mm
18:15 -3.8 °C -4.7 °C 996.8 hPa Calm     94 % 0 mm
18:30 -3.9 °C -4.8 °C 996.8 hPa Calm     94 % 0 mm
18:45 -4.1 °C -4.9 °C 997.2 hPa Calm     94 % 0 mm
19:00 -4.1 °C -4.9 °C 997.5 hPa Calm     94 % 0 mm
19:15 -4.2 °C -5 °C 997.5 hPa Calm     94 % 0 mm
19:30 -4.3 °C -5.2 °C 997.9 hPa Calm     94 % 0 mm
19:45 -4.5 °C -5.3 °C 997.9 hPa Calm     94 % 0 mm
20:00 -4.7 °C -5.3 °C 998.2 hPa Calm     95 % 0 mm
20:15 -4.8 °C -5.5 °C 998.2 hPa Calm     95 % 0 mm
20:30 -4.8 °C -5.5 °C 998.5 hPa Calm     95 % 0 mm
20:45 -4.9 °C -5.6 °C 998.5 hPa Calm     95 % 0 mm
21:00 -5 °C -5.7 °C 998.5 hPa Calm     95 % 0 mm
21:15 -5.2 °C -5.9 °C 998.9 hPa Calm     95 % 0 mm
21:30 -5.3 °C -6 °C 999.2 hPa Calm     95 % 0 mm
21:45 -5.2 °C -5.9 °C 999.2 hPa Calm     95 % 0 mm
22:00 -5.3 °C -6 °C 999.2 hPa Calm     95 % 0 mm
22:15 -5.4 °C -6.1 °C 999.5 hPa Calm     95 % 0 mm
22:30 -5.4 °C -6.1 °C 999.5 hPa Calm     95 % 0 mm
22:45 -5.6 °C -6.2 °C 999.5 hPa Calm     95 % 0 mm
23:00 -5.7 °C -6.4 °C 999.9 hPa Calm     95 % 0 mm
23:15 -5.9 °C -6.6 °C 999.9 hPa Calm     95 % 0 mm
23:30 -6.1 °C -6.7 °C 1000.2 hPa Calm   3.2 km/h 95 % 0 mm
23:45 -6.3 °C -7 °C 1000.6 hPa Calm     95 % 0 mm
Esan sääasema
Terveisin Weather Underground - 2.75 mb

Alkuperäinen skripti  Jim McMurry - jmcmurry@mwt.net Sovitettu myös templatelle  Wim van der Kuil - Leuven-Template.eu

Laitteet joita käytämme:

Sääasema
Davis VP2

Sääasemaohjelma
Cumulus

Sääaseman tietokone
Asus EeePC

Palveluntarjoaja
Suncomet

Davis VP2

Cumulus

Asus EeePC

Suncomet